Weather at Sepang F1 North Helipad

Public forecast

Using degrees Celsius for public forecast. Weather courtesy of forecast.io.

Closest aviation weather report (METAR) to Sepang F1 North Helipad

Closest report is Kuala Lumpur International Airport, 2.0 nm (3.6 km) SW.

2024/07/17 18:30 (retrieved 31 minutes ago)

WMKK 171830Z 14003KT 060V210 9000 FEW030 28/24 Q1009 NOSIG

Closest aviation forecast (TAF) to Sepang F1 North Helipad

Closest forecast is Kuala Lumpur International Airport, 2.0 nm (3.6 km) SW.

2024/07/17 18:09 (retrieved 52 minutes ago)

TAF WMKK 171700Z 1718/1900 VRB03KT 9999 FEW030 PROB30 TEMPO 1722/1802 13005KT 8000 -TSRA FEW017CB